sensor_id;sensor_type;location;lat;lon;timestamp;P1;durP1;ratioP1;P2;durP2;ratioP2
52564;SDS011;38460;53.106;7.004;2023-12-04T00:00:41;27.25;;;14.82;;
52564;SDS011;38460;53.106;7.004;2023-12-04T00:03:07;28.08;;;14.57;;
52564;SDS011;38460;53.106;7.004;2023-12-04T00:05:32;28.08;;;15.88;;
52564;SDS011;38460;53.106;7.004;2023-12-04T00:07:58;27.77;;;14.30;;
52564;SDS011;38460;53.106;7.004;2023-12-04T00:10:24;24.60;;;14.85;;
52564;SDS011;38460;53.106;7.004;2023-12-04T00:12:50;30.08;;;14.88;;
52564;SDS011;38460;53.106;7.004;2023-12-04T00:15:17;26.23;;;14.32;;
52564;SDS011;38460;53.106;7.004;2023-12-04T00:17:44;26.40;;;15.85;;
52564;SDS011;38460;53.106;7.004;2023-12-04T00:20:10;29.73;;;15.05;;
52564;SDS011;38460;53.106;7.004;2023-12-04T00:22:36;24.27;;;14.05;;
52564;SDS011;38460;53.106;7.004;2023-12-04T00:25:03;25.80;;;14.93;;
52564;SDS011;38460;53.106;7.004;2023-12-04T00:27:29;27.05;;;14.18;;
52564;SDS011;38460;53.106;7.004;2023-12-04T00:30:10;26.65;;;15.27;;
52564;SDS011;38460;53.106;7.004;2023-12-04T00:32:36;23.63;;;13.60;;
52564;SDS011;38460;53.106;7.004;2023-12-04T00:35:01;29.65;;;14.80;;
52564;SDS011;38460;53.106;7.004;2023-12-04T00:37:27;27.75;;;15.50;;
52564;SDS011;38460;53.106;7.004;2023-12-04T00:39:53;28.60;;;15.55;;
52564;SDS011;38460;53.106;7.004;2023-12-04T00:42:19;25.98;;;14.77;;
52564;SDS011;38460;53.106;7.004;2023-12-04T00:44:45;29.10;;;16.15;;
52564;SDS011;38460;53.106;7.004;2023-12-04T00:47:10;27.50;;;14.73;;
52564;SDS011;38460;53.106;7.004;2023-12-04T00:49:36;25.98;;;15.48;;
52564;SDS011;38460;53.106;7.004;2023-12-04T00:52:02;27.73;;;16.55;;
52564;SDS011;38460;53.106;7.004;2023-12-04T00:54:28;27.23;;;14.43;;
52564;SDS011;38460;53.106;7.004;2023-12-04T00:56:53;29.90;;;16.17;;
52564;SDS011;38460;53.106;7.004;2023-12-04T00:59:19;27.30;;;14.60;;
52564;SDS011;38460;53.106;7.004;2023-12-04T01:01:45;29.50;;;15.52;;
52564;SDS011;38460;53.106;7.004;2023-12-04T01:04:10;26.83;;;14.57;;
52564;SDS011;38460;53.106;7.004;2023-12-04T01:06:36;29.75;;;15.07;;
52564;SDS011;38460;53.106;7.004;2023-12-04T01:09:02;29.60;;;14.88;;
52564;SDS011;38460;53.106;7.004;2023-12-04T01:11:28;30.90;;;14.68;;
52564;SDS011;38460;53.106;7.004;2023-12-04T01:13:53;28.45;;;14.00;;
52564;SDS011;38460;53.106;7.004;2023-12-04T01:16:19;26.48;;;15.55;;
52564;SDS011;38460;53.106;7.004;2023-12-04T01:18:45;26.02;;;15.25;;
52564;SDS011;38460;53.106;7.004;2023-12-04T01:21:10;30.10;;;15.95;;
52564;SDS011;38460;53.106;7.004;2023-12-04T01:23:36;25.33;;;15.25;;
52564;SDS011;38460;53.106;7.004;2023-12-04T01:26:05;34.20;;;15.85;;
52564;SDS011;38460;53.106;7.004;2023-12-04T01:28:31;27.65;;;15.10;;
52564;SDS011;38460;53.106;7.004;2023-12-04T01:30:57;27.55;;;14.98;;
52564;SDS011;38460;53.106;7.004;2023-12-04T01:33:22;28.42;;;15.93;;
52564;SDS011;38460;53.106;7.004;2023-12-04T01:35:48;25.70;;;14.32;;
52564;SDS011;38460;53.106;7.004;2023-12-04T01:38:14;28.67;;;15.52;;
52564;SDS011;38460;53.106;7.004;2023-12-04T01:40:39;30.67;;;15.18;;
52564;SDS011;38460;53.106;7.004;2023-12-04T01:43:05;24.40;;;15.68;;
52564;SDS011;38460;53.106;7.004;2023-12-04T01:45:31;30.58;;;16.60;;
52564;SDS011;38460;53.106;7.004;2023-12-04T01:47:57;28.77;;;16.00;;
52564;SDS011;38460;53.106;7.004;2023-12-04T01:50:23;26.67;;;15.57;;
52564;SDS011;38460;53.106;7.004;2023-12-04T01:52:50;29.55;;;16.17;;
52564;SDS011;38460;53.106;7.004;2023-12-04T01:55:17;25.42;;;15.93;;
52564;SDS011;38460;53.106;7.004;2023-12-04T01:57:43;28.88;;;16.05;;
52564;SDS011;38460;53.106;7.004;2023-12-04T02:00:09;26.60;;;16.27;;
52564;SDS011;38460;53.106;7.004;2023-12-04T02:02:40;27.35;;;17.20;;
52564;SDS011;38460;53.106;7.004;2023-12-04T02:05:10;28.50;;;16.15;;
52564;SDS011;38460;53.106;7.004;2023-12-04T02:07:37;32.03;;;16.65;;
52564;SDS011;38460;53.106;7.004;2023-12-04T02:10:06;32.88;;;16.95;;
52564;SDS011;38460;53.106;7.004;2023-12-04T02:12:32;27.92;;;15.60;;
52564;SDS011;38460;53.106;7.004;2023-12-04T02:14:58;26.77;;;15.77;;
52564;SDS011;38460;53.106;7.004;2023-12-04T02:17:24;31.45;;;19.02;;
52564;SDS011;38460;53.106;7.004;2023-12-04T02:19:51;28.15;;;15.98;;
52564;SDS011;38460;53.106;7.004;2023-12-04T02:22:18;28.42;;;16.30;;
52564;SDS011;38460;53.106;7.004;2023-12-04T02:24:44;31.77;;;16.88;;
52564;SDS011;38460;53.106;7.004;2023-12-04T02:29:56;31.63;;;16.30;;
52564;SDS011;38460;53.106;7.004;2023-12-04T02:32:30;27.73;;;15.48;;
52564;SDS011;38460;53.106;7.004;2023-12-04T02:34:59;29.92;;;17.20;;
52564;SDS011;38460;53.106;7.004;2023-12-04T02:37:27;33.70;;;17.25;;
52564;SDS011;38460;53.106;7.004;2023-12-04T02:39:53;31.33;;;17.02;;
52564;SDS011;38460;53.106;7.004;2023-12-04T02:42:20;32.78;;;16.80;;
52564;SDS011;38460;53.106;7.004;2023-12-04T02:44:47;32.50;;;15.63;;
52564;SDS011;38460;53.106;7.004;2023-12-04T02:47:13;30.95;;;16.67;;
52564;SDS011;38460;53.106;7.004;2023-12-04T02:49:39;30.83;;;17.00;;
52564;SDS011;38460;53.106;7.004;2023-12-04T02:52:05;27.25;;;16.85;;
52564;SDS011;38460;53.106;7.004;2023-12-04T02:54:31;33.60;;;16.95;;
52564;SDS011;38460;53.106;7.004;2023-12-04T02:56:57;32.30;;;17.63;;
52564;SDS011;38460;53.106;7.004;2023-12-04T02:59:22;29.90;;;16.25;;
52564;SDS011;38460;53.106;7.004;2023-12-04T03:01:48;31.70;;;17.05;;
52564;SDS011;38460;53.106;7.004;2023-12-04T03:04:14;29.85;;;17.20;;
52564;SDS011;38460;53.106;7.004;2023-12-04T03:06:39;33.83;;;17.13;;
52564;SDS011;38460;53.106;7.004;2023-12-04T03:09:05;33.17;;;16.92;;
52564;SDS011;38460;53.106;7.004;2023-12-04T03:11:31;30.02;;;16.38;;
52564;SDS011;38460;53.106;7.004;2023-12-04T03:13:59;32.22;;;17.75;;
52564;SDS011;38460;53.106;7.004;2023-12-04T03:16:25;26.55;;;16.30;;
52564;SDS011;38460;53.106;7.004;2023-12-04T03:18:51;28.90;;;16.17;;
52564;SDS011;38460;53.106;7.004;2023-12-04T03:21:17;26.80;;;16.88;;
52564;SDS011;38460;53.106;7.004;2023-12-04T03:23:42;32.90;;;16.88;;
52564;SDS011;38460;53.106;7.004;2023-12-04T03:26:08;30.77;;;16.50;;
52564;SDS011;38460;53.106;7.004;2023-12-04T03:28:34;29.73;;;17.60;;
52564;SDS011;38460;53.106;7.004;2023-12-04T03:31:00;27.92;;;16.95;;
52564;SDS011;38460;53.106;7.004;2023-12-04T03:33:26;31.83;;;16.80;;
52564;SDS011;38460;53.106;7.004;2023-12-04T03:35:52;28.40;;;16.15;;
52564;SDS011;38460;53.106;7.004;2023-12-04T03:38:18;32.47;;;17.15;;
52564;SDS011;38460;53.106;7.004;2023-12-04T03:40:43;29.80;;;16.63;;
52564;SDS011;38460;53.106;7.004;2023-12-04T03:43:09;30.15;;;17.13;;
52564;SDS011;38460;53.106;7.004;2023-12-04T03:45:35;33.35;;;18.30;;
52564;SDS011;38460;53.106;7.004;2023-12-04T03:48:00;31.90;;;17.05;;
52564;SDS011;38460;53.106;7.004;2023-12-04T03:50:26;33.03;;;16.05;;
52564;SDS011;38460;53.106;7.004;2023-12-04T03:52:52;30.30;;;16.10;;
52564;SDS011;38460;53.106;7.004;2023-12-04T03:55:17;30.20;;;15.95;;
52564;SDS011;38460;53.106;7.004;2023-12-04T03:57:45;28.83;;;15.57;;
52564;SDS011;38460;53.106;7.004;2023-12-04T04:00:11;30.60;;;15.63;;
52564;SDS011;38460;53.106;7.004;2023-12-04T04:02:38;33.67;;;16.63;;
52564;SDS011;38460;53.106;7.004;2023-12-04T04:05:05;30.80;;;16.42;;
52564;SDS011;38460;53.106;7.004;2023-12-04T04:07:30;29.73;;;15.85;;
52564;SDS011;38460;53.106;7.004;2023-12-04T04:09:56;28.30;;;16.50;;
52564;SDS011;38460;53.106;7.004;2023-12-04T04:12:22;29.27;;;16.63;;
52564;SDS011;38460;53.106;7.004;2023-12-04T04:14:48;31.42;;;17.27;;
52564;SDS011;38460;53.106;7.004;2023-12-04T04:17:14;32.65;;;17.17;;
52564;SDS011;38460;53.106;7.004;2023-12-04T04:19:40;29.65;;;17.95;;
52564;SDS011;38460;53.106;7.004;2023-12-04T04:22:06;30.40;;;17.05;;
52564;SDS011;38460;53.106;7.004;2023-12-04T04:24:32;28.17;;;15.77;;
52564;SDS011;38460;53.106;7.004;2023-12-04T04:26:58;29.60;;;15.68;;
52564;SDS011;38460;53.106;7.004;2023-12-04T04:29:23;30.50;;;16.48;;
52564;SDS011;38460;53.106;7.004;2023-12-04T04:31:49;28.45;;;16.02;;
52564;SDS011;38460;53.106;7.004;2023-12-04T04:34:15;27.13;;;15.93;;
52564;SDS011;38460;53.106;7.004;2023-12-04T04:36:40;30.67;;;16.20;;
52564;SDS011;38460;53.106;7.004;2023-12-04T04:39:11;32.15;;;16.98;;
52564;SDS011;38460;53.106;7.004;2023-12-04T04:41:38;30.58;;;16.05;;
52564;SDS011;38460;53.106;7.004;2023-12-04T04:44:04;28.38;;;14.85;;
52564;SDS011;38460;53.106;7.004;2023-12-04T04:46:30;29.73;;;16.08;;
52564;SDS011;38460;53.106;7.004;2023-12-04T04:48:56;27.27;;;15.10;;
52564;SDS011;38460;53.106;7.004;2023-12-04T04:51:22;30.08;;;16.58;;
52564;SDS011;38460;53.106;7.004;2023-12-04T04:53:48;31.15;;;16.88;;
52564;SDS011;38460;53.106;7.004;2023-12-04T04:56:13;27.60;;;15.30;;
52564;SDS011;38460;53.106;7.004;2023-12-04T04:58:40;28.10;;;15.23;;
52564;SDS011;38460;53.106;7.004;2023-12-04T05:01:05;32.35;;;16.60;;
52564;SDS011;38460;53.106;7.004;2023-12-04T05:03:32;28.70;;;16.33;;
52564;SDS011;38460;53.106;7.004;2023-12-04T05:05:57;29.02;;;16.25;;
52564;SDS011;38460;53.106;7.004;2023-12-04T05:08:23;30.73;;;15.80;;
52564;SDS011;38460;53.106;7.004;2023-12-04T05:10:49;29.17;;;17.50;;
52564;SDS011;38460;53.106;7.004;2023-12-04T05:13:14;32.45;;;16.60;;
52564;SDS011;38460;53.106;7.004;2023-12-04T05:15:40;27.40;;;15.25;;
52564;SDS011;38460;53.106;7.004;2023-12-04T05:18:06;26.88;;;15.25;;
52564;SDS011;38460;53.106;7.004;2023-12-04T05:20:31;27.00;;;14.65;;
52564;SDS011;38460;53.106;7.004;2023-12-04T05:22:57;25.98;;;15.68;;
52564;SDS011;38460;53.106;7.004;2023-12-04T05:25:23;29.90;;;14.43;;
52564;SDS011;38460;53.106;7.004;2023-12-04T05:27:49;27.58;;;15.45;;
52564;SDS011;38460;53.106;7.004;2023-12-04T05:30:14;28.88;;;15.50;;
52564;SDS011;38460;53.106;7.004;2023-12-04T05:32:40;23.08;;;13.65;;
52564;SDS011;38460;53.106;7.004;2023-12-04T05:35:06;33.85;;;16.05;;
52564;SDS011;38460;53.106;7.004;2023-12-04T05:37:32;30.27;;;16.00;;
52564;SDS011;38460;53.106;7.004;2023-12-04T05:39:57;27.35;;;15.27;;
52564;SDS011;38460;53.106;7.004;2023-12-04T05:42:23;29.15;;;15.32;;
52564;SDS011;38460;53.106;7.004;2023-12-04T05:44:49;27.60;;;15.30;;
52564;SDS011;38460;53.106;7.004;2023-12-04T05:47:15;27.13;;;15.65;;
52564;SDS011;38460;53.106;7.004;2023-12-04T05:49:40;28.48;;;15.63;;
52564;SDS011;38460;53.106;7.004;2023-12-04T05:52:06;27.70;;;14.25;;
52564;SDS011;38460;53.106;7.004;2023-12-04T05:54:32;31.13;;;15.27;;
52564;SDS011;38460;53.106;7.004;2023-12-04T05:56:58;31.40;;;16.33;;
52564;SDS011;38460;53.106;7.004;2023-12-04T05:59:24;28.75;;;15.95;;
52564;SDS011;38460;53.106;7.004;2023-12-04T06:01:49;26.20;;;14.88;;
52564;SDS011;38460;53.106;7.004;2023-12-04T06:04:15;26.13;;;15.32;;
52564;SDS011;38460;53.106;7.004;2023-12-04T06:06:41;31.90;;;16.77;;
52564;SDS011;38460;53.106;7.004;2023-12-04T06:09:06;27.52;;;15.70;;
52564;SDS011;38460;53.106;7.004;2023-12-04T06:11:32;28.80;;;15.07;;
52564;SDS011;38460;53.106;7.004;2023-12-04T06:13:58;25.90;;;14.98;;
52564;SDS011;38460;53.106;7.004;2023-12-04T06:16:23;26.58;;;15.05;;
52564;SDS011;38460;53.106;7.004;2023-12-04T06:18:49;31.23;;;16.08;;
52564;SDS011;38460;53.106;7.004;2023-12-04T06:21:15;27.23;;;13.88;;
52564;SDS011;38460;53.106;7.004;2023-12-04T06:23:41;28.90;;;15.00;;
52564;SDS011;38460;53.106;7.004;2023-12-04T06:26:07;27.05;;;14.55;;
52564;SDS011;38460;53.106;7.004;2023-12-04T06:28:34;28.10;;;16.25;;
52564;SDS011;38460;53.106;7.004;2023-12-04T06:31:00;23.98;;;13.73;;
52564;SDS011;38460;53.106;7.004;2023-12-04T06:33:26;27.63;;;14.25;;
52564;SDS011;38460;53.106;7.004;2023-12-04T06:35:52;28.48;;;14.52;;
52564;SDS011;38460;53.106;7.004;2023-12-04T06:38:18;31.73;;;15.48;;
52564;SDS011;38460;53.106;7.004;2023-12-04T06:40:48;27.08;;;14.73;;
52564;SDS011;38460;53.106;7.004;2023-12-04T06:43:14;27.85;;;14.38;;
52564;SDS011;38460;53.106;7.004;2023-12-04T06:45:43;26.88;;;14.90;;
52564;SDS011;38460;53.106;7.004;2023-12-04T06:48:11;28.98;;;14.88;;
52564;SDS011;38460;53.106;7.004;2023-12-04T06:50:40;29.27;;;14.75;;
52564;SDS011;38460;53.106;7.004;2023-12-04T06:53:06;26.52;;;14.63;;
52564;SDS011;38460;53.106;7.004;2023-12-04T06:55:32;26.80;;;14.05;;
52564;SDS011;38460;53.106;7.004;2023-12-04T06:57:58;24.40;;;14.38;;
52564;SDS011;38460;53.106;7.004;2023-12-04T07:00:33;25.80;;;14.88;;
52564;SDS011;38460;53.106;7.004;2023-12-04T07:02:59;28.23;;;14.68;;
52564;SDS011;38460;53.106;7.004;2023-12-04T07:05:24;27.50;;;14.18;;
52564;SDS011;38460;53.106;7.004;2023-12-04T07:07:50;27.40;;;15.38;;
52564;SDS011;38460;53.106;7.004;2023-12-04T07:10:16;24.33;;;13.38;;
52564;SDS011;38460;53.106;7.004;2023-12-04T07:12:42;27.85;;;13.65;;
52564;SDS011;38460;53.106;7.004;2023-12-04T07:15:09;28.25;;;15.50;;
52564;SDS011;38460;53.106;7.004;2023-12-04T07:17:36;27.45;;;14.05;;
52564;SDS011;38460;53.106;7.004;2023-12-04T07:20:02;26.02;;;14.27;;
52564;SDS011;38460;53.106;7.004;2023-12-04T07:22:31;27.88;;;14.30;;
52564;SDS011;38460;53.106;7.004;2023-12-04T07:24:57;25.30;;;13.48;;
52564;SDS011;38460;53.106;7.004;2023-12-04T07:27:23;27.10;;;13.82;;
52564;SDS011;38460;53.106;7.004;2023-12-04T07:29:49;30.05;;;14.70;;
52564;SDS011;38460;53.106;7.004;2023-12-04T07:32:15;22.60;;;12.70;;
52564;SDS011;38460;53.106;7.004;2023-12-04T07:34:41;26.83;;;14.35;;
52564;SDS011;38460;53.106;7.004;2023-12-04T07:37:06;23.05;;;12.80;;
52564;SDS011;38460;53.106;7.004;2023-12-04T07:39:32;20.88;;;12.50;;
52564;SDS011;38460;53.106;7.004;2023-12-04T07:41:58;24.08;;;14.25;;
52564;SDS011;38460;53.106;7.004;2023-12-04T07:44:23;26.58;;;13.90;;
52564;SDS011;38460;53.106;7.004;2023-12-04T07:46:49;24.13;;;13.73;;
52564;SDS011;38460;53.106;7.004;2023-12-04T07:49:15;23.13;;;13.07;;
52564;SDS011;38460;53.106;7.004;2023-12-04T07:51:41;21.50;;;12.45;;
52564;SDS011;38460;53.106;7.004;2023-12-04T07:54:07;23.05;;;11.73;;
52564;SDS011;38460;53.106;7.004;2023-12-04T07:56:32;23.42;;;13.00;;
52564;SDS011;38460;53.106;7.004;2023-12-04T07:58:58;22.73;;;11.77;;
52564;SDS011;38460;53.106;7.004;2023-12-04T08:01:24;20.20;;;10.50;;
52564;SDS011;38460;53.106;7.004;2023-12-04T08:03:50;20.50;;;11.95;;
52564;SDS011;38460;53.106;7.004;2023-12-04T08:06:15;21.70;;;11.75;;
52564;SDS011;38460;53.106;7.004;2023-12-04T08:08:44;17.98;;;11.15;;
52564;SDS011;38460;53.106;7.004;2023-12-04T08:11:10;20.45;;;11.90;;
52564;SDS011;38460;53.106;7.004;2023-12-04T08:13:38;21.90;;;11.75;;
52564;SDS011;38460;53.106;7.004;2023-12-04T08:16:04;19.88;;;11.25;;
52564;SDS011;38460;53.106;7.004;2023-12-04T08:18:30;18.92;;;9.95;;
52564;SDS011;38460;53.106;7.004;2023-12-04T08:20:56;17.23;;;10.43;;
52564;SDS011;38460;53.106;7.004;2023-12-04T08:23:24;22.50;;;11.18;;
52564;SDS011;38460;53.106;7.004;2023-12-04T08:25:50;19.20;;;9.80;;
52564;SDS011;38460;53.106;7.004;2023-12-04T08:28:16;17.88;;;10.45;;
52564;SDS011;38460;53.106;7.004;2023-12-04T08:30:42;16.52;;;9.73;;
52564;SDS011;38460;53.106;7.004;2023-12-04T08:33:07;18.63;;;10.82;;
52564;SDS011;38460;53.106;7.004;2023-12-04T08:35:33;19.98;;;10.27;;
52564;SDS011;38460;53.106;7.004;2023-12-04T08:37:59;17.38;;;9.55;;
52564;SDS011;38460;53.106;7.004;2023-12-04T08:40:25;19.48;;;9.90;;
52564;SDS011;38460;53.106;7.004;2023-12-04T08:42:51;16.65;;;10.10;;
52564;SDS011;38460;53.106;7.004;2023-12-04T08:45:17;21.63;;;10.80;;
52564;SDS011;38460;53.106;7.004;2023-12-04T08:47:43;18.58;;;10.63;;
52564;SDS011;38460;53.106;7.004;2023-12-04T08:50:09;18.15;;;9.80;;
52564;SDS011;38460;53.106;7.004;2023-12-04T08:52:35;15.40;;;8.68;;
52564;SDS011;38460;53.106;7.004;2023-12-04T08:55:01;15.52;;;9.15;;
52564;SDS011;38460;53.106;7.004;2023-12-04T08:57:27;16.20;;;9.52;;
52564;SDS011;38460;53.106;7.004;2023-12-04T08:59:53;14.30;;;8.65;;
52564;SDS011;38460;53.106;7.004;2023-12-04T09:02:18;17.02;;;8.65;;
52564;SDS011;38460;53.106;7.004;2023-12-04T09:04:44;13.55;;;8.15;;
52564;SDS011;38460;53.106;7.004;2023-12-04T09:07:10;16.60;;;9.90;;
52564;SDS011;38460;53.106;7.004;2023-12-04T09:09:36;16.67;;;8.77;;
52564;SDS011;38460;53.106;7.004;2023-12-04T09:12:01;15.68;;;8.73;;
52564;SDS011;38460;53.106;7.004;2023-12-04T09:14:27;15.95;;;8.13;;
52564;SDS011;38460;53.106;7.004;2023-12-04T09:16:53;16.13;;;8.80;;
52564;SDS011;38460;53.106;7.004;2023-12-04T09:19:18;15.77;;;8.55;;
52564;SDS011;38460;53.106;7.004;2023-12-04T09:21:44;15.18;;;8.55;;
52564;SDS011;38460;53.106;7.004;2023-12-04T09:24:10;16.17;;;8.60;;
52564;SDS011;38460;53.106;7.004;2023-12-04T09:26:36;15.02;;;8.07;;
52564;SDS011;38460;53.106;7.004;2023-12-04T09:29:01;14.50;;;8.23;;
52564;SDS011;38460;53.106;7.004;2023-12-04T09:31:27;14.63;;;8.55;;
52564;SDS011;38460;53.106;7.004;2023-12-04T09:33:53;14.55;;;7.93;;
52564;SDS011;38460;53.106;7.004;2023-12-04T09:36:19;16.77;;;8.93;;
52564;SDS011;38460;53.106;7.004;2023-12-04T09:38:44;13.55;;;8.30;;
52564;SDS011;38460;53.106;7.004;2023-12-04T09:41:12;16.08;;;9.30;;
52564;SDS011;38460;53.106;7.004;2023-12-04T09:43:40;15.80;;;8.93;;
52564;SDS011;38460;53.106;7.004;2023-12-04T09:46:07;15.43;;;8.50;;
52564;SDS011;38460;53.106;7.004;2023-12-04T09:48:33;13.93;;;8.02;;
52564;SDS011;38460;53.106;7.004;2023-12-04T09:51:01;12.27;;;7.38;;
52564;SDS011;38460;53.106;7.004;2023-12-04T09:53:27;13.98;;;8.20;;
52564;SDS011;38460;53.106;7.004;2023-12-04T09:55:55;14.52;;;8.63;;
52564;SDS011;38460;53.106;7.004;2023-12-04T09:58:25;16.10;;;8.10;;
52564;SDS011;38460;53.106;7.004;2023-12-04T10:00:53;13.10;;;7.88;;
52564;SDS011;38460;53.106;7.004;2023-12-04T10:03:20;14.07;;;7.78;;
52564;SDS011;38460;53.106;7.004;2023-12-04T10:05:46;14.70;;;7.03;;
52564;SDS011;38460;53.106;7.004;2023-12-04T10:08:13;14.98;;;8.00;;
52564;SDS011;38460;53.106;7.004;2023-12-04T10:10:39;9.95;;;7.25;;
52564;SDS011;38460;53.106;7.004;2023-12-04T10:13:05;13.85;;;7.25;;
52564;SDS011;38460;53.106;7.004;2023-12-04T10:15:31;15.45;;;8.00;;
52564;SDS011;38460;53.106;7.004;2023-12-04T10:17:57;14.27;;;7.82;;
52564;SDS011;38460;53.106;7.004;2023-12-04T10:20:23;12.15;;;7.93;;
52564;SDS011;38460;53.106;7.004;2023-12-04T10:22:53;15.38;;;8.07;;
52564;SDS011;38460;53.106;7.004;2023-12-04T10:25:24;11.40;;;6.78;;
52564;SDS011;38460;53.106;7.004;2023-12-04T10:27:53;10.45;;;6.70;;
52564;SDS011;38460;53.106;7.004;2023-12-04T10:30:29;11.23;;;7.72;;
52564;SDS011;38460;53.106;7.004;2023-12-04T10:32:58;12.35;;;7.28;;
52564;SDS011;38460;53.106;7.004;2023-12-04T10:35:31;11.20;;;6.55;;
52564;SDS011;38460;53.106;7.004;2023-12-04T10:37:58;12.75;;;7.47;;
52564;SDS011;38460;53.106;7.004;2023-12-04T10:40:43;13.20;;;8.25;;
52564;SDS011;38460;53.106;7.004;2023-12-04T10:45:34;14.23;;;7.55;;
52564;SDS011;38460;53.106;7.004;2023-12-04T10:48:07;12.82;;;7.80;;
52564;SDS011;38460;53.106;7.004;2023-12-04T10:50:38;12.45;;;7.80;;
52564;SDS011;38460;53.106;7.004;2023-12-04T10:53:06;12.38;;;7.05;;
52564;SDS011;38460;53.106;7.004;2023-12-04T10:55:34;12.98;;;7.60;;
52564;SDS011;38460;53.106;7.004;2023-12-04T10:58:01;13.90;;;7.47;;
52564;SDS011;38460;53.106;7.004;2023-12-04T11:00:44;12.95;;;7.05;;
52564;SDS011;38460;53.106;7.004;2023-12-04T11:03:17;13.38;;;7.57;;
52564;SDS011;38460;53.106;7.004;2023-12-04T11:05:48;15.73;;;7.43;;
52564;SDS011;38460;53.106;7.004;2023-12-04T11:08:21;13.38;;;6.97;;
52564;SDS011;38460;53.106;7.004;2023-12-04T11:13:41;14.48;;;7.10;;
52564;SDS011;38460;53.106;7.004;2023-12-04T11:22:00;13.20;;;7.63;;
52564;SDS011;38460;53.106;7.004;2023-12-04T11:24:28;12.25;;;7.50;;
52564;SDS011;38460;53.106;7.004;2023-12-04T11:26:54;11.02;;;6.78;;
52564;SDS011;38460;53.106;7.004;2023-12-04T11:29:21;12.75;;;7.95;;
52564;SDS011;38460;53.106;7.004;2023-12-04T11:31:48;13.98;;;8.07;;
52564;SDS011;38460;53.106;7.004;2023-12-04T11:34:14;15.75;;;7.43;;
52564;SDS011;38460;53.106;7.004;2023-12-04T11:36:40;13.40;;;8.13;;
52564;SDS011;38460;53.106;7.004;2023-12-04T11:39:09;12.90;;;7.78;;
52564;SDS011;38460;53.106;7.004;2023-12-04T11:41:35;12.07;;;7.13;;
52564;SDS011;38460;53.106;7.004;2023-12-04T11:44:02;12.10;;;7.47;;
52564;SDS011;38460;53.106;7.004;2023-12-04T11:46:29;13.98;;;8.13;;
52564;SDS011;38460;53.106;7.004;2023-12-04T11:52:03;14.20;;;7.28;;
52564;SDS011;38460;53.106;7.004;2023-12-04T11:54:35;12.93;;;8.43;;
52564;SDS011;38460;53.106;7.004;2023-12-04T11:57:23;12.20;;;7.50;;
52564;SDS011;38460;53.106;7.004;2023-12-04T11:59:51;13.60;;;8.32;;
52564;SDS011;38460;53.106;7.004;2023-12-04T12:02:17;14.60;;;8.13;;
52564;SDS011;38460;53.106;7.004;2023-12-04T12:04:43;11.90;;;8.18;;
52564;SDS011;38460;53.106;7.004;2023-12-04T12:07:12;10.55;;;7.20;;
52564;SDS011;38460;53.106;7.004;2023-12-04T12:09:38;11.88;;;6.93;;
52564;SDS011;38460;53.106;7.004;2023-12-04T12:12:04;14.25;;;8.43;;
52564;SDS011;38460;53.106;7.004;2023-12-04T12:14:30;14.00;;;8.80;;
52564;SDS011;38460;53.106;7.004;2023-12-04T12:16:57;12.95;;;7.65;;
52564;SDS011;38460;53.106;7.004;2023-12-04T12:19:25;13.77;;;8.45;;
52564;SDS011;38460;53.106;7.004;2023-12-04T12:21:51;10.98;;;8.38;;
52564;SDS011;38460;53.106;7.004;2023-12-04T12:24:17;13.48;;;8.52;;
52564;SDS011;38460;53.106;7.004;2023-12-04T12:26:46;14.13;;;8.63;;
52564;SDS011;38460;53.106;7.004;2023-12-04T12:29:12;14.93;;;8.93;;
52564;SDS011;38460;53.106;7.004;2023-12-04T12:31:37;15.88;;;8.77;;
52564;SDS011;38460;53.106;7.004;2023-12-04T12:34:03;13.98;;;8.32;;
52564;SDS011;38460;53.106;7.004;2023-12-04T12:36:29;14.25;;;8.95;;
52564;SDS011;38460;53.106;7.004;2023-12-04T12:38:59;15.20;;;8.52;;
52564;SDS011;38460;53.106;7.004;2023-12-04T12:41:25;15.60;;;8.85;;
52564;SDS011;38460;53.106;7.004;2023-12-04T12:43:52;15.63;;;8.45;;
52564;SDS011;38460;53.106;7.004;2023-12-04T12:46:21;12.77;;;7.57;;
52564;SDS011;38460;53.106;7.004;2023-12-04T12:48:47;14.63;;;9.05;;
52564;SDS011;38460;53.106;7.004;2023-12-04T12:51:13;11.68;;;7.85;;
52564;SDS011;38460;53.106;7.004;2023-12-04T12:53:39;16.10;;;9.30;;
52564;SDS011;38460;53.106;7.004;2023-12-04T12:56:05;14.30;;;8.65;;
52564;SDS011;38460;53.106;7.004;2023-12-04T12:58:33;14.20;;;8.45;;
52564;SDS011;38460;53.106;7.004;2023-12-04T13:00:59;14.18;;;8.40;;
52564;SDS011;38460;53.106;7.004;2023-12-04T13:03:26;12.75;;;7.65;;
52564;SDS011;38460;53.106;7.004;2023-12-04T13:05:53;12.95;;;8.27;;
52564;SDS011;38460;53.106;7.004;2023-12-04T13:08:18;13.70;;;8.88;;
52564;SDS011;38460;53.106;7.004;2023-12-04T13:10:44;17.00;;;8.85;;
52564;SDS011;38460;53.106;7.004;2023-12-04T13:13:11;14.98;;;8.80;;
52564;SDS011;38460;53.106;7.004;2023-12-04T13:15:37;13.40;;;8.13;;
52564;SDS011;38460;53.106;7.004;2023-12-04T13:18:03;13.02;;;7.90;;
52564;SDS011;38460;53.106;7.004;2023-12-04T13:20:29;15.48;;;7.93;;
52564;SDS011;38460;53.106;7.004;2023-12-04T13:22:55;13.70;;;9.20;;
52564;SDS011;38460;53.106;7.004;2023-12-04T13:25:21;14.23;;;8.55;;
52564;SDS011;38460;53.106;7.004;2023-12-04T13:27:48;13.40;;;7.53;;
52564;SDS011;38460;53.106;7.004;2023-12-04T13:30:14;12.35;;;8.20;;
52564;SDS011;38460;53.106;7.004;2023-12-04T13:32:40;15.25;;;8.07;;
52564;SDS011;38460;53.106;7.004;2023-12-04T13:35:06;13.10;;;8.15;;
52564;SDS011;38460;53.106;7.004;2023-12-04T13:37:34;11.77;;;7.47;;
52564;SDS011;38460;53.106;7.004;2023-12-04T13:40:05;13.40;;;7.80;;
52564;SDS011;38460;53.106;7.004;2023-12-04T13:42:37;13.90;;;8.35;;
52564;SDS011;38460;53.106;7.004;2023-12-04T13:45:22;13.65;;;7.38;;
52564;SDS011;38460;53.106;7.004;2023-12-04T13:47:48;12.88;;;7.82;;
52564;SDS011;38460;53.106;7.004;2023-12-04T13:50:14;12.27;;;8.35;;
52564;SDS011;38460;53.106;7.004;2023-12-04T13:52:40;13.30;;;7.20;;
52564;SDS011;38460;53.106;7.004;2023-12-04T13:55:08;14.05;;;8.40;;
52564;SDS011;38460;53.106;7.004;2023-12-04T13:57:45;10.18;;;7.25;;
52564;SDS011;38460;53.106;7.004;2023-12-04T14:00:29;14.68;;;8.15;;
52564;SDS011;38460;53.106;7.004;2023-12-04T14:02:55;13.55;;;7.97;;
52564;SDS011;38460;53.106;7.004;2023-12-04T14:05:32;11.98;;;7.05;;
52564;SDS011;38460;53.106;7.004;2023-12-04T14:07:59;12.02;;;7.60;;
52564;SDS011;38460;53.106;7.004;2023-12-04T14:10:26;11.15;;;7.25;;
52564;SDS011;38460;53.106;7.004;2023-12-04T14:12:52;13.65;;;7.60;;
52564;SDS011;38460;53.106;7.004;2023-12-04T14:15:20;12.98;;;7.40;;
52564;SDS011;38460;53.106;7.004;2023-12-04T14:17:46;12.63;;;7.70;;
52564;SDS011;38460;53.106;7.004;2023-12-04T14:20:12;12.02;;;7.43;;
52564;SDS011;38460;53.106;7.004;2023-12-04T14:22:44;12.27;;;7.38;;
52564;SDS011;38460;53.106;7.004;2023-12-04T14:25:11;12.90;;;7.72;;
52564;SDS011;38460;53.106;7.004;2023-12-04T14:27:37;12.73;;;7.35;;
52564;SDS011;38460;53.106;7.004;2023-12-04T14:30:08;13.15;;;7.30;;
52564;SDS011;38460;53.106;7.004;2023-12-04T14:32:34;11.73;;;7.90;;
52564;SDS011;38460;53.106;7.004;2023-12-04T14:35:01;15.85;;;9.05;;
52564;SDS011;38460;53.106;7.004;2023-12-04T14:37:29;14.40;;;7.97;;
52564;SDS011;38460;53.106;7.004;2023-12-04T14:39:55;13.82;;;7.65;;